sensor_id;sensor_type;location;lat;lon;timestamp;P1;durP1;ratioP1;P2;durP2;ratioP2
9934;SDS011;5006;41.828;23.478;2024-01-15T00:00:21;29.63;;;20.40;;
9934;SDS011;5006;41.828;23.478;2024-01-15T00:01:27;39.33;;;27.50;;
9934;SDS011;5006;41.828;23.478;2024-01-15T00:02:32;38.35;;;27.25;;
9934;SDS011;5006;41.828;23.478;2024-01-15T00:03:38;38.67;;;25.45;;
9934;SDS011;5006;41.828;23.478;2024-01-15T00:04:43;40.75;;;25.70;;
9934;SDS011;5006;41.828;23.478;2024-01-15T00:05:50;34.38;;;22.85;;
9934;SDS011;5006;41.828;23.478;2024-01-15T00:06:56;33.00;;;21.25;;
9934;SDS011;5006;41.828;23.478;2024-01-15T00:08:03;34.85;;;21.55;;
9934;SDS011;5006;41.828;23.478;2024-01-15T00:09:09;31.02;;;21.15;;
9934;SDS011;5006;41.828;23.478;2024-01-15T00:10:15;31.00;;;19.55;;
9934;SDS011;5006;41.828;23.478;2024-01-15T00:11:20;31.52;;;19.30;;
9934;SDS011;5006;41.828;23.478;2024-01-15T00:12:28;27.60;;;18.52;;
9934;SDS011;5006;41.828;23.478;2024-01-15T00:13:34;26.60;;;17.95;;
9934;SDS011;5006;41.828;23.478;2024-01-15T00:14:40;26.55;;;15.73;;
9934;SDS011;5006;41.828;23.478;2024-01-15T00:15:46;27.02;;;16.45;;
9934;SDS011;5006;41.828;23.478;2024-01-15T00:16:52;27.65;;;16.10;;
9934;SDS011;5006;41.828;23.478;2024-01-15T00:18:00;25.05;;;15.95;;
9934;SDS011;5006;41.828;23.478;2024-01-15T00:19:06;27.30;;;17.42;;
9934;SDS011;5006;41.828;23.478;2024-01-15T00:20:12;22.50;;;14.30;;
9934;SDS011;5006;41.828;23.478;2024-01-15T00:21:18;23.50;;;13.68;;
9934;SDS011;5006;41.828;23.478;2024-01-15T00:22:24;31.38;;;18.17;;
9934;SDS011;5006;41.828;23.478;2024-01-15T00:23:32;26.35;;;16.08;;
9934;SDS011;5006;41.828;23.478;2024-01-15T00:24:36;29.83;;;19.90;;
9934;SDS011;5006;41.828;23.478;2024-01-15T00:25:43;35.05;;;20.52;;
9934;SDS011;5006;41.828;23.478;2024-01-15T00:26:49;30.58;;;19.15;;
9934;SDS011;5006;41.828;23.478;2024-01-15T00:27:57;32.53;;;16.80;;
9934;SDS011;5006;41.828;23.478;2024-01-15T00:29:03;25.17;;;16.15;;
9934;SDS011;5006;41.828;23.478;2024-01-15T00:30:10;22.73;;;14.88;;
9934;SDS011;5006;41.828;23.478;2024-01-15T00:31:16;21.15;;;14.18;;
9934;SDS011;5006;41.828;23.478;2024-01-15T00:32:22;24.13;;;15.80;;
9934;SDS011;5006;41.828;23.478;2024-01-15T00:33:27;20.45;;;14.68;;
9934;SDS011;5006;41.828;23.478;2024-01-15T00:34:33;22.23;;;14.48;;
9934;SDS011;5006;41.828;23.478;2024-01-15T00:35:38;21.02;;;14.10;;
9934;SDS011;5006;41.828;23.478;2024-01-15T00:36:46;21.23;;;14.80;;
9934;SDS011;5006;41.828;23.478;2024-01-15T00:37:51;21.92;;;14.23;;
9934;SDS011;5006;41.828;23.478;2024-01-15T00:38:57;24.23;;;14.88;;
9934;SDS011;5006;41.828;23.478;2024-01-15T00:40:03;27.08;;;14.23;;
9934;SDS011;5006;41.828;23.478;2024-01-15T00:41:11;22.13;;;13.95;;
9934;SDS011;5006;41.828;23.478;2024-01-15T00:42:17;23.92;;;14.75;;
9934;SDS011;5006;41.828;23.478;2024-01-15T00:43:25;23.98;;;15.10;;
9934;SDS011;5006;41.828;23.478;2024-01-15T00:44:31;26.90;;;17.15;;
9934;SDS011;5006;41.828;23.478;2024-01-15T00:45:37;26.77;;;17.25;;
9934;SDS011;5006;41.828;23.478;2024-01-15T00:46:43;25.92;;;16.45;;
9934;SDS011;5006;41.828;23.478;2024-01-15T00:47:51;26.95;;;16.85;;
9934;SDS011;5006;41.828;23.478;2024-01-15T00:48:57;24.65;;;16.80;;
9934;SDS011;5006;41.828;23.478;2024-01-15T00:50:04;26.17;;;17.48;;
9934;SDS011;5006;41.828;23.478;2024-01-15T00:51:09;29.30;;;16.27;;
9934;SDS011;5006;41.828;23.478;2024-01-15T00:52:16;25.50;;;15.65;;
9934;SDS011;5006;41.828;23.478;2024-01-15T00:53:21;22.10;;;14.88;;
9934;SDS011;5006;41.828;23.478;2024-01-15T00:54:28;26.08;;;16.27;;
9934;SDS011;5006;41.828;23.478;2024-01-15T00:55:32;30.98;;;16.33;;
9934;SDS011;5006;41.828;23.478;2024-01-15T00:56:38;27.00;;;15.90;;
9934;SDS011;5006;41.828;23.478;2024-01-15T00:57:43;26.65;;;15.40;;
9934;SDS011;5006;41.828;23.478;2024-01-15T00:58:51;27.25;;;15.27;;
9934;SDS011;5006;41.828;23.478;2024-01-15T00:59:57;28.40;;;17.05;;
9934;SDS011;5006;41.828;23.478;2024-01-15T01:01:03;29.52;;;16.55;;
9934;SDS011;5006;41.828;23.478;2024-01-15T01:02:09;24.33;;;15.75;;
9934;SDS011;5006;41.828;23.478;2024-01-15T01:03:14;24.48;;;14.77;;
9934;SDS011;5006;41.828;23.478;2024-01-15T01:04:21;22.90;;;14.73;;
9934;SDS011;5006;41.828;23.478;2024-01-15T01:05:27;22.55;;;14.80;;
9934;SDS011;5006;41.828;23.478;2024-01-15T01:06:33;25.13;;;17.42;;
9934;SDS011;5006;41.828;23.478;2024-01-15T01:07:39;26.42;;;17.60;;
9934;SDS011;5006;41.828;23.478;2024-01-15T01:08:45;24.00;;;16.40;;
9934;SDS011;5006;41.828;23.478;2024-01-15T01:09:50;27.67;;;15.30;;
9934;SDS011;5006;41.828;23.478;2024-01-15T01:10:56;26.70;;;15.02;;
9934;SDS011;5006;41.828;23.478;2024-01-15T01:12:03;25.63;;;15.60;;
9934;SDS011;5006;41.828;23.478;2024-01-15T01:13:09;27.05;;;15.75;;
9934;SDS011;5006;41.828;23.478;2024-01-15T01:14:17;25.02;;;15.73;;
9934;SDS011;5006;41.828;23.478;2024-01-15T01:15:23;25.27;;;17.73;;
9934;SDS011;5006;41.828;23.478;2024-01-15T01:16:29;34.53;;;17.77;;
9934;SDS011;5006;41.828;23.478;2024-01-15T01:17:36;33.40;;;18.20;;
9934;SDS011;5006;41.828;23.478;2024-01-15T01:18:42;28.58;;;15.77;;
9934;SDS011;5006;41.828;23.478;2024-01-15T01:19:47;29.38;;;14.50;;
9934;SDS011;5006;41.828;23.478;2024-01-15T01:20:54;25.92;;;14.13;;
9934;SDS011;5006;41.828;23.478;2024-01-15T01:22:00;25.58;;;13.10;;
9934;SDS011;5006;41.828;23.478;2024-01-15T01:23:07;26.67;;;12.85;;
9934;SDS011;5006;41.828;23.478;2024-01-15T01:24:13;23.23;;;13.30;;
9934;SDS011;5006;41.828;23.478;2024-01-15T01:25:19;24.05;;;13.77;;
9934;SDS011;5006;41.828;23.478;2024-01-15T01:26:27;28.92;;;14.82;;
9934;SDS011;5006;41.828;23.478;2024-01-15T01:27:33;25.75;;;17.42;;
9934;SDS011;5006;41.828;23.478;2024-01-15T01:28:39;25.80;;;17.23;;
9934;SDS011;5006;41.828;23.478;2024-01-15T01:29:46;25.65;;;17.30;;
9934;SDS011;5006;41.828;23.478;2024-01-15T01:30:53;25.00;;;16.08;;
9934;SDS011;5006;41.828;23.478;2024-01-15T01:31:59;30.05;;;16.23;;
9934;SDS011;5006;41.828;23.478;2024-01-15T01:33:09;26.08;;;15.45;;
9934;SDS011;5006;41.828;23.478;2024-01-15T01:34:15;25.40;;;16.13;;
9934;SDS011;5006;41.828;23.478;2024-01-15T01:35:22;23.73;;;16.27;;
9934;SDS011;5006;41.828;23.478;2024-01-15T01:36:28;24.40;;;16.60;;
9934;SDS011;5006;41.828;23.478;2024-01-15T01:37:36;25.88;;;16.70;;
9934;SDS011;5006;41.828;23.478;2024-01-15T01:38:41;24.48;;;15.95;;
9934;SDS011;5006;41.828;23.478;2024-01-15T01:39:47;23.98;;;15.73;;
9934;SDS011;5006;41.828;23.478;2024-01-15T01:40:53;25.00;;;15.18;;
9934;SDS011;5006;41.828;23.478;2024-01-15T01:42:00;23.58;;;15.13;;
9934;SDS011;5006;41.828;23.478;2024-01-15T01:43:06;19.85;;;14.13;;
9934;SDS011;5006;41.828;23.478;2024-01-15T01:44:14;21.00;;;14.63;;
9934;SDS011;5006;41.828;23.478;2024-01-15T01:45:21;24.95;;;16.15;;
9934;SDS011;5006;41.828;23.478;2024-01-15T01:46:28;23.20;;;15.88;;
9934;SDS011;5006;41.828;23.478;2024-01-15T01:47:34;23.38;;;14.95;;
9934;SDS011;5006;41.828;23.478;2024-01-15T01:48:41;24.52;;;15.30;;
9934;SDS011;5006;41.828;23.478;2024-01-15T01:49:46;26.42;;;15.52;;
9934;SDS011;5006;41.828;23.478;2024-01-15T01:50:55;24.15;;;15.05;;
9934;SDS011;5006;41.828;23.478;2024-01-15T01:52:05;24.52;;;16.05;;
9934;SDS011;5006;41.828;23.478;2024-01-15T01:53:12;24.13;;;15.82;;
9934;SDS011;5006;41.828;23.478;2024-01-15T01:54:19;21.08;;;13.70;;
9934;SDS011;5006;41.828;23.478;2024-01-15T01:55:27;26.42;;;16.92;;
9934;SDS011;5006;41.828;23.478;2024-01-15T01:56:34;24.98;;;16.38;;
9934;SDS011;5006;41.828;23.478;2024-01-15T01:57:41;23.55;;;14.82;;
9934;SDS011;5006;41.828;23.478;2024-01-15T01:58:48;26.15;;;17.25;;
9934;SDS011;5006;41.828;23.478;2024-01-15T01:59:54;22.92;;;15.82;;
9934;SDS011;5006;41.828;23.478;2024-01-15T02:01:02;20.95;;;14.57;;
9934;SDS011;5006;41.828;23.478;2024-01-15T02:02:08;23.15;;;15.23;;
9934;SDS011;5006;41.828;23.478;2024-01-15T02:03:13;25.70;;;17.40;;
9934;SDS011;5006;41.828;23.478;2024-01-15T02:04:19;26.40;;;16.92;;
9934;SDS011;5006;41.828;23.478;2024-01-15T02:05:27;25.65;;;16.08;;
9934;SDS011;5006;41.828;23.478;2024-01-15T02:06:35;25.75;;;16.75;;
9934;SDS011;5006;41.828;23.478;2024-01-15T02:07:41;31.38;;;19.30;;
9934;SDS011;5006;41.828;23.478;2024-01-15T02:08:46;31.00;;;20.58;;
9934;SDS011;5006;41.828;23.478;2024-01-15T02:09:51;31.95;;;19.02;;
9934;SDS011;5006;41.828;23.478;2024-01-15T02:10:57;30.15;;;18.33;;
9934;SDS011;5006;41.828;23.478;2024-01-15T02:12:05;25.70;;;15.98;;
9934;SDS011;5006;41.828;23.478;2024-01-15T02:13:11;25.73;;;15.90;;
9934;SDS011;5006;41.828;23.478;2024-01-15T02:14:16;25.48;;;16.80;;
9934;SDS011;5006;41.828;23.478;2024-01-15T02:15:22;28.25;;;18.38;;
9934;SDS011;5006;41.828;23.478;2024-01-15T02:16:29;29.83;;;18.10;;
9934;SDS011;5006;41.828;23.478;2024-01-15T02:19:05;28.33;;;17.75;;
9934;SDS011;5006;41.828;23.478;2024-01-15T02:20:12;29.67;;;18.17;;
9934;SDS011;5006;41.828;23.478;2024-01-15T02:21:19;26.23;;;17.52;;
9934;SDS011;5006;41.828;23.478;2024-01-15T02:22:26;27.92;;;18.05;;
9934;SDS011;5006;41.828;23.478;2024-01-15T02:23:33;26.38;;;17.08;;
9934;SDS011;5006;41.828;23.478;2024-01-15T02:24:40;27.42;;;17.08;;
9934;SDS011;5006;41.828;23.478;2024-01-15T02:25:46;26.80;;;18.58;;
9934;SDS011;5006;41.828;23.478;2024-01-15T02:26:53;29.27;;;17.65;;
9934;SDS011;5006;41.828;23.478;2024-01-15T02:28:00;27.60;;;17.52;;
9934;SDS011;5006;41.828;23.478;2024-01-15T02:29:07;29.80;;;19.23;;
9934;SDS011;5006;41.828;23.478;2024-01-15T02:30:13;28.00;;;16.80;;
9934;SDS011;5006;41.828;23.478;2024-01-15T02:31:20;26.42;;;16.90;;
9934;SDS011;5006;41.828;23.478;2024-01-15T02:32:25;27.75;;;17.13;;
9934;SDS011;5006;41.828;23.478;2024-01-15T02:33:32;27.05;;;17.92;;
9934;SDS011;5006;41.828;23.478;2024-01-15T02:34:39;25.10;;;16.98;;
9934;SDS011;5006;41.828;23.478;2024-01-15T02:35:46;25.23;;;16.40;;
9934;SDS011;5006;41.828;23.478;2024-01-15T02:36:55;26.65;;;17.73;;
9934;SDS011;5006;41.828;23.478;2024-01-15T02:38:02;24.30;;;15.63;;
9934;SDS011;5006;41.828;23.478;2024-01-15T02:39:09;24.67;;;16.48;;
9934;SDS011;5006;41.828;23.478;2024-01-15T02:40:16;25.73;;;15.55;;
9934;SDS011;5006;41.828;23.478;2024-01-15T02:41:21;27.00;;;17.25;;
9934;SDS011;5006;41.828;23.478;2024-01-15T02:42:27;27.75;;;18.42;;
9934;SDS011;5006;41.828;23.478;2024-01-15T02:43:33;32.60;;;20.40;;
9934;SDS011;5006;41.828;23.478;2024-01-15T02:44:39;30.65;;;19.15;;
9934;SDS011;5006;41.828;23.478;2024-01-15T02:45:44;31.70;;;19.15;;
9934;SDS011;5006;41.828;23.478;2024-01-15T02:46:48;32.75;;;19.48;;
9934;SDS011;5006;41.828;23.478;2024-01-15T02:47:54;31.98;;;19.55;;
9934;SDS011;5006;41.828;23.478;2024-01-15T02:49:00;32.50;;;19.92;;
9934;SDS011;5006;41.828;23.478;2024-01-15T02:50:08;32.67;;;20.60;;
9934;SDS011;5006;41.828;23.478;2024-01-15T02:51:15;39.22;;;23.75;;
9934;SDS011;5006;41.828;23.478;2024-01-15T02:52:22;44.22;;;26.27;;
9934;SDS011;5006;41.828;23.478;2024-01-15T02:53:27;46.60;;;28.70;;
9934;SDS011;5006;41.828;23.478;2024-01-15T02:54:35;44.67;;;28.27;;
9934;SDS011;5006;41.828;23.478;2024-01-15T02:55:41;35.08;;;22.30;;
9934;SDS011;5006;41.828;23.478;2024-01-15T02:56:48;33.55;;;21.33;;
9934;SDS011;5006;41.828;23.478;2024-01-15T02:57:53;36.45;;;21.13;;
9934;SDS011;5006;41.828;23.478;2024-01-15T02:59:00;35.35;;;19.98;;
9934;SDS011;5006;41.828;23.478;2024-01-15T03:00:06;30.92;;;17.90;;
9934;SDS011;5006;41.828;23.478;2024-01-15T03:01:14;32.40;;;19.33;;
9934;SDS011;5006;41.828;23.478;2024-01-15T03:02:20;35.65;;;19.50;;
9934;SDS011;5006;41.828;23.478;2024-01-15T03:03:27;35.97;;;21.15;;
9934;SDS011;5006;41.828;23.478;2024-01-15T03:04:32;37.25;;;19.77;;
9934;SDS011;5006;41.828;23.478;2024-01-15T03:05:38;34.80;;;19.58;;
9934;SDS011;5006;41.828;23.478;2024-01-15T03:06:43;31.52;;;18.63;;
9934;SDS011;5006;41.828;23.478;2024-01-15T03:07:49;32.10;;;19.08;;
9934;SDS011;5006;41.828;23.478;2024-01-15T03:08:54;33.83;;;19.48;;
9934;SDS011;5006;41.828;23.478;2024-01-15T03:10:01;32.08;;;19.50;;
9934;SDS011;5006;41.828;23.478;2024-01-15T03:11:08;34.72;;;18.88;;
9934;SDS011;5006;41.828;23.478;2024-01-15T03:12:14;33.22;;;18.85;;
9934;SDS011;5006;41.828;23.478;2024-01-15T03:13:20;29.20;;;18.77;;
9934;SDS011;5006;41.828;23.478;2024-01-15T03:14:25;29.05;;;17.73;;
9934;SDS011;5006;41.828;23.478;2024-01-15T03:15:31;35.63;;;19.38;;
9934;SDS011;5006;41.828;23.478;2024-01-15T03:16:37;28.48;;;17.65;;
9934;SDS011;5006;41.828;23.478;2024-01-15T03:17:44;31.83;;;18.73;;
9934;SDS011;5006;41.828;23.478;2024-01-15T03:18:49;33.63;;;19.48;;
9934;SDS011;5006;41.828;23.478;2024-01-15T03:19:54;34.47;;;19.10;;
9934;SDS011;5006;41.828;23.478;2024-01-15T03:20:59;34.13;;;19.23;;
9934;SDS011;5006;41.828;23.478;2024-01-15T03:22:07;28.25;;;16.23;;
9934;SDS011;5006;41.828;23.478;2024-01-15T03:23:13;48.05;;;27.60;;
9934;SDS011;5006;41.828;23.478;2024-01-15T03:24:19;64.32;;;33.53;;
9934;SDS011;5006;41.828;23.478;2024-01-15T03:25:26;50.80;;;27.05;;
9934;SDS011;5006;41.828;23.478;2024-01-15T03:26:33;47.03;;;26.63;;
9934;SDS011;5006;41.828;23.478;2024-01-15T03:27:39;49.92;;;27.08;;
9934;SDS011;5006;41.828;23.478;2024-01-15T03:28:44;51.05;;;29.08;;
9934;SDS011;5006;41.828;23.478;2024-01-15T03:29:50;45.95;;;26.52;;
9934;SDS011;5006;41.828;23.478;2024-01-15T03:30:56;64.35;;;35.65;;
9934;SDS011;5006;41.828;23.478;2024-01-15T03:32:01;60.55;;;32.95;;
9934;SDS011;5006;41.828;23.478;2024-01-15T03:33:09;53.67;;;31.10;;
9934;SDS011;5006;41.828;23.478;2024-01-15T03:34:15;46.72;;;27.35;;
9934;SDS011;5006;41.828;23.478;2024-01-15T03:35:20;49.53;;;28.08;;
9934;SDS011;5006;41.828;23.478;2024-01-15T03:36:27;49.10;;;27.27;;
9934;SDS011;5006;41.828;23.478;2024-01-15T03:37:34;40.28;;;22.63;;
9934;SDS011;5006;41.828;23.478;2024-01-15T03:38:40;36.97;;;22.67;;
9934;SDS011;5006;41.828;23.478;2024-01-15T03:39:47;38.90;;;22.08;;
9934;SDS011;5006;41.828;23.478;2024-01-15T03:40:54;36.10;;;21.95;;
9934;SDS011;5006;41.828;23.478;2024-01-15T03:42:00;34.28;;;22.35;;
9934;SDS011;5006;41.828;23.478;2024-01-15T03:43:06;31.85;;;21.48;;
9934;SDS011;5006;41.828;23.478;2024-01-15T03:44:12;33.45;;;21.25;;
9934;SDS011;5006;41.828;23.478;2024-01-15T03:45:18;32.95;;;20.73;;
9934;SDS011;5006;41.828;23.478;2024-01-15T03:46:24;33.03;;;19.70;;
9934;SDS011;5006;41.828;23.478;2024-01-15T03:47:29;31.27;;;19.83;;
9934;SDS011;5006;41.828;23.478;2024-01-15T03:48:36;30.80;;;19.73;;
9934;SDS011;5006;41.828;23.478;2024-01-15T03:49:40;32.83;;;19.45;;
9934;SDS011;5006;41.828;23.478;2024-01-15T03:50:46;30.38;;;19.27;;
9934;SDS011;5006;41.828;23.478;2024-01-15T03:51:53;27.27;;;18.35;;
9934;SDS011;5006;41.828;23.478;2024-01-15T03:53:00;32.45;;;21.15;;
9934;SDS011;5006;41.828;23.478;2024-01-15T03:54:05;28.42;;;19.05;;
9934;SDS011;5006;41.828;23.478;2024-01-15T03:55:12;31.98;;;19.85;;
9934;SDS011;5006;41.828;23.478;2024-01-15T03:56:18;30.08;;;18.23;;
9934;SDS011;5006;41.828;23.478;2024-01-15T03:57:25;31.05;;;19.58;;
9934;SDS011;5006;41.828;23.478;2024-01-15T03:58:31;33.88;;;19.05;;
9934;SDS011;5006;41.828;23.478;2024-01-15T03:59:37;29.67;;;17.45;;
9934;SDS011;5006;41.828;23.478;2024-01-15T04:00:42;28.65;;;17.88;;
9934;SDS011;5006;41.828;23.478;2024-01-15T04:01:49;30.27;;;17.98;;
9934;SDS011;5006;41.828;23.478;2024-01-15T04:02:55;32.00;;;18.20;;
9934;SDS011;5006;41.828;23.478;2024-01-15T04:04:02;28.35;;;17.70;;
9934;SDS011;5006;41.828;23.478;2024-01-15T04:05:08;30.83;;;17.52;;
9934;SDS011;5006;41.828;23.478;2024-01-15T04:06:16;25.67;;;16.85;;
9934;SDS011;5006;41.828;23.478;2024-01-15T04:07:21;30.02;;;18.30;;
9934;SDS011;5006;41.828;23.478;2024-01-15T04:08:27;28.40;;;18.95;;
9934;SDS011;5006;41.828;23.478;2024-01-15T04:09:33;27.88;;;17.00;;
9934;SDS011;5006;41.828;23.478;2024-01-15T04:10:38;26.52;;;16.25;;
9934;SDS011;5006;41.828;23.478;2024-01-15T04:11:46;29.15;;;18.88;;
9934;SDS011;5006;41.828;23.478;2024-01-15T04:12:52;30.15;;;18.20;;
9934;SDS011;5006;41.828;23.478;2024-01-15T04:13:59;30.27;;;20.02;;
9934;SDS011;5006;41.828;23.478;2024-01-15T04:15:06;34.28;;;18.65;;
9934;SDS011;5006;41.828;23.478;2024-01-15T04:16:13;29.00;;;18.65;;
9934;SDS011;5006;41.828;23.478;2024-01-15T04:17:19;33.50;;;19.38;;
9934;SDS011;5006;41.828;23.478;2024-01-15T04:18:26;31.02;;;19.42;;
9934;SDS011;5006;41.828;23.478;2024-01-15T04:19:33;32.40;;;19.27;;
9934;SDS011;5006;41.828;23.478;2024-01-15T04:20:38;31.58;;;18.88;;
9934;SDS011;5006;41.828;23.478;2024-01-15T04:21:45;30.58;;;18.33;;
9934;SDS011;5006;41.828;23.478;2024-01-15T04:22:49;29.80;;;17.95;;
9934;SDS011;5006;41.828;23.478;2024-01-15T04:23:57;43.85;;;19.58;;
9934;SDS011;5006;41.828;23.478;2024-01-15T04:25:04;35.95;;;20.08;;
9934;SDS011;5006;41.828;23.478;2024-01-15T04:26:12;33.60;;;19.52;;
9934;SDS011;5006;41.828;23.478;2024-01-15T04:27:19;36.13;;;19.30;;
9934;SDS011;5006;41.828;23.478;2024-01-15T04:28:25;36.05;;;18.98;;
9934;SDS011;5006;41.828;23.478;2024-01-15T04:29:31;34.53;;;19.00;;
9934;SDS011;5006;41.828;23.478;2024-01-15T04:30:37;33.42;;;19.05;;
9934;SDS011;5006;41.828;23.478;2024-01-15T04:31:42;33.75;;;19.27;;
9934;SDS011;5006;41.828;23.478;2024-01-15T04:32:49;29.63;;;15.90;;
9934;SDS011;5006;41.828;23.478;2024-01-15T04:33:54;30.33;;;17.80;;
9934;SDS011;5006;41.828;23.478;2024-01-15T04:35:00;31.02;;;18.25;;
9934;SDS011;5006;41.828;23.478;2024-01-15T04:36:06;32.00;;;18.27;;
9934;SDS011;5006;41.828;23.478;2024-01-15T04:37:13;31.20;;;18.00;;
9934;SDS011;5006;41.828;23.478;2024-01-15T04:38:19;29.65;;;17.95;;
9934;SDS011;5006;41.828;23.478;2024-01-15T04:39:25;29.95;;;18.40;;
9934;SDS011;5006;41.828;23.478;2024-01-15T04:40:30;27.27;;;17.25;;
9934;SDS011;5006;41.828;23.478;2024-01-15T04:41:37;27.83;;;16.92;;
9934;SDS011;5006;41.828;23.478;2024-01-15T04:42:43;32.85;;;17.02;;
9934;SDS011;5006;41.828;23.478;2024-01-15T04:43:51;27.40;;;16.83;;
9934;SDS011;5006;41.828;23.478;2024-01-15T04:44:56;32.35;;;18.33;;
9934;SDS011;5006;41.828;23.478;2024-01-15T04:46:02;29.52;;;16.98;;
9934;SDS011;5006;41.828;23.478;2024-01-15T04:47:10;27.27;;;16.83;;
9934;SDS011;5006;41.828;23.478;2024-01-15T04:48:16;30.33;;;17.58;;
9934;SDS011;5006;41.828;23.478;2024-01-15T04:49:22;32.88;;;16.67;;
9934;SDS011;5006;41.828;23.478;2024-01-15T04:50:31;28.67;;;16.75;;
9934;SDS011;5006;41.828;23.478;2024-01-15T04:51:36;32.28;;;17.67;;
9934;SDS011;5006;41.828;23.478;2024-01-15T04:52:41;32.15;;;17.63;;
9934;SDS011;5006;41.828;23.478;2024-01-15T04:53:48;36.33;;;17.95;;
9934;SDS011;5006;41.828;23.478;2024-01-15T04:54:53;29.30;;;17.35;;
9934;SDS011;5006;41.828;23.478;2024-01-15T04:55:58;31.50;;;17.73;;
9934;SDS011;5006;41.828;23.478;2024-01-15T04:57:03;28.25;;;16.60;;
9934;SDS011;5006;41.828;23.478;2024-01-15T04:58:11;29.48;;;16.60;;
9934;SDS011;5006;41.828;23.478;2024-01-15T04:59:17;29.67;;;16.95;;
9934;SDS011;5006;41.828;23.478;2024-01-15T05:00:23;30.27;;;17.00;;
9934;SDS011;5006;41.828;23.478;2024-01-15T05:01:30;26.42;;;16.17;;
9934;SDS011;5006;41.828;23.478;2024-01-15T05:02:38;26.55;;;15.48;;
9934;SDS011;5006;41.828;23.478;2024-01-15T05:03:44;27.70;;;15.60;;
9934;SDS011;5006;41.828;23.478;2024-01-15T05:04:51;28.42;;;15.63;;
9934;SDS011;5006;41.828;23.478;2024-01-15T05:05:57;22.48;;;14.02;;
9934;SDS011;5006;41.828;23.478;2024-01-15T05:07:03;20.95;;;13.95;;
9934;SDS011;5006;41.828;23.478;2024-01-15T05:08:08;36.08;;;20.02;;
9934;SDS011;5006;41.828;23.478;2024-01-15T05:09:14;41.30;;;26.63;;
9934;SDS011;5006;41.828;23.478;2024-01-15T05:10:20;41.15;;;26.52;;
9934;SDS011;5006;41.828;23.478;2024-01-15T05:11:26;37.28;;;27.20;;
9934;SDS011;5006;41.828;23.478;2024-01-15T05:12:33;44.58;;;32.47;;
9934;SDS011;5006;41.828;23.478;2024-01-15T05:13:39;39.85;;;29.70;;
9934;SDS011;5006;41.828;23.478;2024-01-15T05:14:46;40.38;;;25.88;;
9934;SDS011;5006;41.828;23.478;2024-01-15T05:15:50;39.90;;;26.65;;
9934;SDS011;5006;41.828;23.478;2024-01-15T05:16:57;37.92;;;25.60;;
9934;SDS011;5006;41.828;23.478;2024-01-15T05:18:03;38.90;;;26.27;;
9934;SDS011;5006;41.828;23.478;2024-01-15T05:19:10;34.05;;;24.50;;
9934;SDS011;5006;41.828;23.478;2024-01-15T05:20:16;34.90;;;23.60;;
9934;SDS011;5006;41.828;23.478;2024-01-15T05:21:23;35.08;;;23.70;;
9934;SDS011;5006;41.828;23.478;2024-01-15T05:22:28;35.45;;;21.88;;
9934;SDS011;5006;41.828;23.478;2024-01-15T05:23:34;32.17;;;22.55;;
9934;SDS011;5006;41.828;23.478;2024-01-15T05:24:41;35.92;;;25.60;;
9934;SDS011;5006;41.828;23.478;2024-01-15T05:25:47;38.55;;;25.67;;
9934;SDS011;5006;41.828;23.478;2024-01-15T05:26:52;34.03;;;24.30;;
9934;SDS011;5006;41.828;23.478;2024-01-15T05:27:59;31.70;;;22.80;;
9934;SDS011;5006;41.828;23.478;2024-01-15T05:29:06;37.17;;;24.30;;
9934;SDS011;5006;41.828;23.478;2024-01-15T05:30:13;40.83;;;28.20;;
9934;SDS011;5006;41.828;23.478;2024-01-15T05:31:19;49.17;;;33.67;;
9934;SDS011;5006;41.828;23.478;2024-01-15T05:32:26;59.63;;;38.13;;
9934;SDS011;5006;41.828;23.478;2024-01-15T05:33:31;68.57;;;42.40;;
9934;SDS011;5006;41.828;23.478;2024-01-15T05:34:38;78.32;;;47.33;;
9934;SDS011;5006;41.828;23.478;2024-01-15T05:35:43;95.10;;;57.33;;
9934;SDS011;5006;41.828;23.478;2024-01-15T05:36:51;113.30;;;66.53;;
9934;SDS011;5006;41.828;23.478;2024-01-15T05:37:58;143.80;;;83.10;;
9934;SDS011;5006;41.828;23.478;2024-01-15T05:39:05;176.60;;;104.45;;
9934;SDS011;5006;41.828;23.478;2024-01-15T05:40:10;211.63;;;122.38;;
9934;SDS011;5006;41.828;23.478;2024-01-15T05:41:17;221.57;;;129.70;;
9934;SDS011;5006;41.828;23.478;2024-01-15T05:42:24;222.68;;;128.15;;
9934;SDS011;5006;41.828;23.478;2024-01-15T05:43:29;227.90;;;134.32;;
9934;SDS011;5006;41.828;23.478;2024-01-15T05:44:37;235.93;;;139.68;;
9934;SDS011;5006;41.828;23.478;2024-01-15T05:45:43;241.38;;;139.98;;
9934;SDS011;5006;41.828;23.478;2024-01-15T05:46:50;233.80;;;137.38;;
9934;SDS011;5006;41.828;23.478;2024-01-15T05:47:56;218.50;;;128.70;;
9934;SDS011;5006;41.828;23.478;2024-01-15T05:49:06;131.68;;;75.03;;
9934;SDS011;5006;41.828;23.478;2024-01-15T05:50:11;156.27;;;92.85;;
9934;SDS011;5006;41.828;23.478;2024-01-15T05:51:18;142.23;;;82.55;;
9934;SDS011;5006;41.828;23.478;2024-01-15T05:52:24;139.80;;;82.47;;
9934;SDS011;5006;41.828;23.478;2024-01-15T05:53:31;133.10;;;78.20;;
9934;SDS011;5006;41.828;23.478;2024-01-15T05:54:36;108.80;;;61.65;;
9934;SDS011;5006;41.828;23.478;2024-01-15T05:55:42;92.43;;;55.13;;
9934;SDS011;5006;41.828;23.478;2024-01-15T05:56:48;94.63;;;57.03;;
9934;SDS011;5006;41.828;23.478;2024-01-15T05:57:55;112.65;;;66.53;;
9934;SDS011;5006;41.828;23.478;2024-01-15T05:59:00;105.57;;;62.17;;
9934;SDS011;5006;41.828;23.478;2024-01-15T06:00:09;92.35;;;51.85;;
9934;SDS011;5006;41.828;23.478;2024-01-15T06:01:15;60.92;;;34.13;;
9934;SDS011;5006;41.828;23.478;2024-01-15T06:02:21;66.43;;;37.28;;
9934;SDS011;5006;41.828;23.478;2024-01-15T06:03:27;71.68;;;39.67;;
9934;SDS011;5006;41.828;23.478;2024-01-15T06:04:34;58.03;;;31.70;;
9934;SDS011;5006;41.828;23.478;2024-01-15T06:05:39;36.22;;;21.52;;
9934;SDS011;5006;41.828;23.478;2024-01-15T06:06:45;30.58;;;17.35;;
9934;SDS011;5006;41.828;23.478;2024-01-15T06:07:51;34.10;;;21.05;;
9934;SDS011;5006;41.828;23.478;2024-01-15T06:08:56;47.33;;;27.17;;
9934;SDS011;5006;41.828;23.478;2024-01-15T06:10:05;36.25;;;20.15;;
9934;SDS011;5006;41.828;23.478;2024-01-15T06:11:13;46.83;;;26.00;;
9934;SDS011;5006;41.828;23.478;2024-01-15T06:12:18;44.80;;;25.73;;
9934;SDS011;5006;41.828;23.478;2024-01-15T06:13:24;43.20;;;24.45;;
9934;SDS011;5006;41.828;23.478;2024-01-15T06:14:28;46.28;;;26.85;;
9934;SDS011;5006;41.828;23.478;2024-01-15T06:15:36;51.90;;;29.13;;
9934;SDS011;5006;41.828;23.478;2024-01-15T06:16:42;38.85;;;19.85;;
9934;SDS011;5006;41.828;23.478;2024-01-15T06:17:47;32.33;;;17.90;;
9934;SDS011;5006;41.828;23.478;2024-01-15T06:18:53;20.70;;;13.10;;
9934;SDS011;5006;41.828;23.478;2024-01-15T06:19:59;26.15;;;17.00;;
9934;SDS011;5006;41.828;23.478;2024-01-15T06:21:06;32.97;;;19.00;;
9934;SDS011;5006;41.828;23.478;2024-01-15T06:22:12;35.10;;;18.58;;
9934;SDS011;5006;41.828;23.478;2024-01-15T06:23:19;26.38;;;14.98;;
9934;SDS011;5006;41.828;23.478;2024-01-15T06:24:25;21.85;;;11.88;;
9934;SDS011;5006;41.828;23.478;2024-01-15T06:25:30;18.13;;;10.20;;
9934;SDS011;5006;41.828;23.478;2024-01-15T06:26:36;15.52;;;9.52;;
9934;SDS011;5006;41.828;23.478;2024-01-15T06:27:42;16.52;;;9.95;;
9934;SDS011;5006;41.828;23.478;2024-01-15T06:28:48;18.65;;;10.55;;
9934;SDS011;5006;41.828;23.478;2024-01-15T06:29:55;18.60;;;10.77;;
9934;SDS011;5006;41.828;23.478;2024-01-15T06:31:02;42.90;;;26.45;;
9934;SDS011;5006;41.828;23.478;2024-01-15T06:32:10;86.82;;;51.08;;
9934;SDS011;5006;41.828;23.478;2024-01-15T06:33:16;111.85;;;66.97;;
9934;SDS011;5006;41.828;23.478;2024-01-15T06:34:22;136.95;;;83.90;;